createdAt,value
2023-05-10T00:00:43.308Z,12.18
2023-05-10T00:03:10.587Z,12.16
2023-05-10T00:05:37.763Z,12.15
2023-05-10T00:08:04.968Z,12.12
2023-05-10T00:10:32.082Z,12.10
2023-05-10T00:12:59.306Z,12.06
2023-05-10T00:15:26.522Z,12.02
2023-05-10T00:17:53.653Z,11.96
2023-05-10T00:20:21.322Z,11.95
2023-05-10T00:22:48.494Z,11.95
2023-05-10T00:25:15.782Z,11.92
2023-05-10T00:27:42.922Z,11.87
2023-05-10T00:30:10.338Z,11.84
2023-05-10T00:32:37.522Z,11.80
2023-05-10T00:35:04.969Z,11.78
2023-05-10T00:37:32.081Z,11.72
2023-05-10T00:39:59.260Z,11.68
2023-05-10T00:42:26.378Z,11.64
2023-05-10T00:44:53.621Z,11.58
2023-05-10T00:47:20.852Z,11.51
2023-05-10T00:49:48.172Z,11.46
2023-05-10T00:52:15.372Z,11.43
2023-05-10T00:54:42.779Z,11.40
2023-05-10T00:57:10.266Z,11.37
2023-05-10T00:59:37.518Z,11.34
2023-05-10T01:02:04.810Z,11.32
2023-05-10T01:04:32.324Z,11.29
2023-05-10T01:07:00.391Z,11.23
2023-05-10T01:09:27.543Z,11.16
2023-05-10T01:11:55.175Z,11.13
2023-05-10T01:14:22.520Z,11.10
2023-05-10T01:16:50.431Z,11.06
2023-05-10T01:19:23.818Z,11.02
2023-05-10T01:22:10.922Z,11.00
2023-05-10T01:25:09.120Z,10.95
2023-05-10T01:27:54.979Z,10.93
2023-05-10T01:30:59.814Z,10.88
2023-05-10T01:33:48.647Z,10.87
2023-05-10T01:36:27.866Z,10.84
2023-05-10T01:39:17.065Z,10.81
2023-05-10T01:42:05.149Z,10.77
2023-05-10T01:44:50.710Z,10.69
2023-05-10T01:47:45.927Z,10.62
2023-05-10T01:50:19.636Z,10.56
2023-05-10T01:52:55.631Z,10.52
2023-05-10T01:55:25.308Z,10.51
2023-05-10T01:57:59.807Z,10.50
2023-05-10T02:00:28.109Z,10.49
2023-05-10T02:02:56.006Z,10.45
2023-05-10T02:05:23.940Z,10.41
2023-05-10T02:07:51.561Z,10.36
2023-05-10T02:10:19.605Z,10.33
2023-05-10T02:13:13.638Z,10.29
2023-05-10T02:16:06.590Z,10.26
2023-05-10T02:18:35.275Z,10.23
2023-05-10T02:21:03.681Z,10.23
2023-05-10T02:23:31.451Z,10.20
2023-05-10T02:25:59.155Z,10.16
2023-05-10T02:28:26.813Z,10.13
2023-05-10T02:30:54.954Z,10.09
2023-05-10T02:33:22.534Z,10.05
2023-05-10T02:35:51.454Z,10.03
2023-05-10T02:38:20.417Z,10.01
2023-05-10T02:40:48.405Z,9.98
2023-05-10T02:43:17.345Z,9.95
2023-05-10T02:45:44.916Z,9.95
2023-05-10T02:48:12.088Z,9.95
2023-05-10T02:50:41.081Z,9.97
2023-05-10T02:53:12.522Z,10.00
2023-05-10T02:55:42.374Z,10.03
2023-05-10T02:58:09.598Z,10.03
2023-05-10T03:00:37.270Z,10.00
2023-05-10T03:03:04.601Z,9.95
2023-05-10T03:05:31.791Z,9.92
2023-05-10T03:07:58.951Z,9.90
2023-05-10T03:10:28.921Z,9.88
2023-05-10T03:13:30.565Z,9.84
2023-05-10T03:16:09.399Z,9.81
2023-05-10T03:18:51.849Z,9.77
2023-05-10T03:21:19.533Z,9.74
2023-05-10T03:24:00.838Z,9.77
2023-05-10T03:26:29.667Z,9.81
2023-05-10T03:28:56.996Z,9.82
2023-05-10T03:31:24.372Z,9.83
2023-05-10T03:33:52.765Z,9.81
2023-05-10T03:36:20.399Z,9.80
2023-05-10T03:38:47.936Z,9.76
2023-05-10T03:41:15.078Z,9.72
2023-05-10T03:43:42.619Z,9.72
2023-05-10T03:46:09.729Z,9.71
2023-05-10T03:48:36.906Z,9.69
2023-05-10T03:51:04.162Z,9.70
2023-05-10T03:53:31.365Z,9.74
2023-05-10T03:55:58.479Z,9.77
2023-05-10T03:58:25.924Z,9.77
2023-05-10T04:00:53.387Z,9.80
2023-05-10T04:03:21.234Z,9.89
2023-05-10T04:05:48.519Z,9.93
2023-05-10T04:08:17.262Z,9.95
2023-05-10T04:10:44.555Z,9.97
2023-05-10T04:13:12.149Z,9.97
2023-05-10T04:15:39.262Z,9.98
2023-05-10T04:18:08.722Z,9.99
2023-05-10T04:20:36.046Z,10.05
2023-05-10T04:23:03.237Z,10.09
2023-05-10T04:25:30.424Z,10.13
2023-05-10T04:27:57.576Z,10.17
2023-05-10T04:30:24.914Z,10.20
2023-05-10T04:32:52.114Z,10.24
2023-05-10T04:35:19.318Z,10.26
2023-05-10T04:37:46.390Z,10.31
2023-05-10T04:40:13.664Z,10.37
2023-05-10T04:42:42.157Z,10.41
2023-05-10T04:45:10.525Z,10.47
2023-05-10T04:47:38.077Z,10.53
2023-05-10T04:50:06.029Z,10.63
2023-05-10T04:52:33.151Z,10.72
2023-05-10T04:55:00.217Z,10.81
2023-05-10T04:57:27.448Z,10.89
2023-05-10T04:59:54.587Z,10.94
2023-05-10T05:02:21.879Z,11.00
2023-05-10T05:04:49.031Z,11.06
2023-05-10T05:07:16.154Z,11.12
2023-05-10T05:09:43.308Z,11.19
2023-05-10T05:12:14.777Z,11.25
2023-05-10T05:14:42.225Z,11.36
2023-05-10T05:17:09.364Z,11.43
2023-05-10T05:19:36.705Z,11.49
2023-05-10T05:22:03.886Z,11.59
2023-05-10T05:24:36.631Z,11.69
2023-05-10T05:27:03.754Z,11.79
2023-05-10T05:29:30.817Z,11.91
2023-05-10T05:31:58.002Z,11.97
2023-05-10T05:34:25.208Z,11.99
2023-05-10T05:36:52.351Z,12.08
2023-05-10T05:39:19.406Z,12.16
2023-05-10T05:41:47.583Z,12.24
2023-05-10T05:44:14.665Z,12.37
2023-05-10T05:46:41.773Z,12.48
2023-05-10T05:49:08.900Z,12.58
2023-05-10T05:51:36.504Z,12.66
2023-05-10T05:54:05.224Z,12.76
2023-05-10T05:56:32.365Z,12.83
2023-05-10T05:58:59.493Z,12.89
2023-05-10T06:01:26.681Z,12.99
2023-05-10T06:03:54.235Z,13.07
2023-05-10T06:06:21.335Z,13.18
2023-05-10T06:08:48.466Z,13.31
2023-05-10T06:11:15.628Z,13.33
2023-05-10T06:13:43.344Z,13.44
2023-05-10T06:16:10.429Z,13.57
2023-05-10T06:18:37.777Z,13.72
2023-05-10T06:21:05.012Z,13.78
2023-05-10T06:23:32.228Z,13.78
2023-05-10T06:25:59.362Z,13.74
2023-05-10T06:28:26.538Z,13.83
2023-05-10T06:30:53.713Z,13.85
2023-05-10T06:33:20.804Z,13.98
2023-05-10T06:35:47.967Z,14.03
2023-05-10T06:38:15.274Z,14.06
2023-05-10T06:40:43.166Z,14.13
2023-05-10T06:43:10.916Z,14.29
2023-05-10T06:45:38.025Z,14.33
2023-05-10T06:48:05.256Z,14.32
2023-05-10T06:50:32.356Z,14.33
2023-05-10T06:52:59.767Z,14.39
2023-05-10T06:55:27.409Z,14.43
2023-05-10T06:57:54.845Z,14.53
2023-05-10T07:00:22.030Z,14.66
2023-05-10T07:02:49.458Z,14.62
2023-05-10T07:05:16.901Z,14.68
2023-05-10T07:07:44.280Z,14.74
2023-05-10T07:10:11.524Z,14.82
2023-05-10T07:12:39.323Z,14.90
2023-05-10T07:15:07.360Z,14.90
2023-05-10T07:17:34.611Z,15.04
2023-05-10T07:20:02.467Z,15.17
2023-05-10T07:22:29.597Z,15.34
2023-05-10T07:24:56.723Z,15.39
2023-05-10T07:27:23.857Z,15.50
2023-05-10T07:29:51.489Z,15.73
2023-05-10T07:32:18.624Z,15.90
2023-05-10T07:34:45.761Z,15.99
2023-05-10T07:37:13.039Z,16.05
2023-05-10T07:39:40.139Z,15.99
2023-05-10T07:42:07.245Z,16.02
2023-05-10T07:44:34.335Z,16.13
2023-05-10T07:47:01.498Z,16.30
2023-05-10T07:49:28.600Z,16.51
2023-05-10T07:51:55.870Z,16.62
2023-05-10T07:54:23.027Z,16.70
2023-05-10T07:56:50.289Z,16.75
2023-05-10T07:59:17.961Z,16.92
2023-05-10T08:01:45.585Z,17.15
2023-05-10T08:04:12.988Z,17.31
2023-05-10T08:06:40.756Z,17.48
2023-05-10T08:09:08.449Z,17.62
2023-05-10T08:11:36.118Z,17.49
2023-05-10T08:14:03.344Z,17.49
2023-05-10T08:16:30.517Z,17.54
2023-05-10T08:18:57.709Z,17.58
2023-05-10T08:21:24.941Z,17.74
2023-05-10T08:23:52.032Z,17.86
2023-05-10T08:26:19.116Z,17.88
2023-05-10T08:28:46.175Z,17.95
2023-05-10T08:31:13.297Z,18.01
2023-05-10T08:33:42.176Z,18.11
2023-05-10T08:36:10.184Z,18.28
2023-05-10T08:38:38.669Z,18.27
2023-05-10T08:41:06.439Z,18.21
2023-05-10T08:43:33.874Z,18.16
2023-05-10T08:46:02.250Z,18.17
2023-05-10T08:48:30.527Z,18.16
2023-05-10T08:50:59.726Z,18.16
2023-05-10T08:53:28.232Z,18.36
2023-05-10T08:55:56.583Z,18.53
2023-05-10T08:58:23.757Z,18.43
2023-05-10T09:00:54.115Z,18.51
2023-05-10T09:03:21.637Z,18.67
2023-05-10T09:05:49.822Z,18.88
2023-05-10T09:08:20.811Z,19.07
2023-05-10T09:10:49.256Z,19.11
2023-05-10T09:13:19.308Z,19.12
2023-05-10T09:15:47.109Z,19.08
2023-05-10T09:18:14.335Z,19.22
2023-05-10T09:20:41.876Z,19.42
2023-05-10T09:23:09.398Z,19.33
2023-05-10T09:25:36.585Z,19.39
2023-05-10T09:28:07.547Z,19.45
2023-05-10T09:30:34.721Z,19.42
2023-05-10T09:33:02.342Z,19.34
2023-05-10T09:35:31.977Z,19.41
2023-05-10T09:38:01.638Z,19.38
2023-05-10T09:40:29.755Z,19.39
2023-05-10T09:42:59.423Z,19.51
2023-05-10T09:45:28.223Z,19.58
2023-05-10T09:47:55.609Z,19.73
2023-05-10T09:50:23.880Z,19.85
2023-05-10T09:52:55.844Z,19.89
2023-05-10T09:55:24.527Z,19.87
2023-05-10T09:58:00.592Z,20.05
2023-05-10T10:00:28.280Z,20.20
2023-05-10T10:02:59.534Z,20.23
2023-05-10T10:05:36.711Z,20.39
2023-05-10T10:08:05.422Z,20.42
2023-05-10T10:10:33.778Z,20.47
2023-05-10T10:13:00.970Z,20.51
2023-05-10T10:15:28.389Z,20.41
2023-05-10T10:17:55.727Z,20.57
2023-05-10T10:20:23.644Z,20.71
2023-05-10T10:22:50.813Z,20.84
2023-05-10T10:25:19.181Z,21.01
2023-05-10T10:27:52.273Z,21.20
2023-05-10T10:30:40.885Z,21.35
2023-05-10T10:33:38.582Z,21.54
2023-05-10T10:36:06.072Z,21.70
2023-05-10T10:38:48.272Z,21.87
2023-05-10T10:41:34.694Z,21.98
2023-05-10T10:44:31.592Z,22.13
2023-05-10T10:47:19.479Z,22.34
2023-05-10T10:49:58.560Z,22.41
2023-05-10T10:52:34.095Z,22.53
2023-05-10T10:55:03.847Z,22.39
2023-05-10T10:57:53.162Z,22.23
2023-05-10T11:00:22.067Z,22.18
2023-05-10T11:03:00.422Z,22.23
2023-05-10T11:05:47.204Z,22.54
2023-05-10T11:08:46.797Z,22.60
2023-05-10T11:11:15.775Z,22.62
2023-05-10T11:13:49.149Z,22.68
2023-05-10T11:16:21.508Z,22.72
2023-05-10T11:19:03.181Z,22.65
2023-05-10T11:21:31.913Z,22.55
2023-05-10T11:24:06.684Z,22.58
2023-05-10T11:26:37.452Z,22.75
2023-05-10T11:29:05.902Z,22.94
2023-05-10T11:31:33.366Z,23.14
2023-05-10T11:34:02.672Z,23.23
2023-05-10T11:36:36.754Z,23.24
2023-05-10T11:39:04.888Z,23.31
2023-05-10T11:41:32.754Z,23.27
2023-05-10T11:43:59.978Z,23.31
2023-05-10T11:46:29.335Z,23.41
2023-05-10T11:49:05.107Z,23.73
2023-05-10T11:51:36.073Z,23.77
2023-05-10T11:54:10.438Z,24.00
2023-05-10T11:56:41.292Z,24.18
2023-05-10T11:59:09.156Z,24.18
2023-05-10T12:01:36.730Z,24.15
2023-05-10T12:04:04.004Z,24.31
2023-05-10T12:06:32.951Z,24.61
2023-05-10T12:09:00.235Z,24.62
2023-05-10T12:11:29.137Z,24.76
2023-05-10T12:13:57.243Z,24.70
2023-05-10T12:16:26.917Z,24.94
2023-05-10T12:19:01.764Z,24.99
2023-05-10T12:21:31.633Z,24.85
2023-05-10T12:24:06.212Z,24.88
2023-05-10T12:26:33.594Z,24.79
2023-05-10T12:29:21.192Z,24.92
2023-05-10T12:31:51.456Z,25.09
2023-05-10T12:34:36.847Z,25.22
2023-05-10T12:37:04.002Z,25.09
2023-05-10T12:39:45.097Z,25.40
2023-05-10T12:42:12.312Z,25.63
2023-05-10T12:44:40.134Z,25.93
2023-05-10T12:47:07.299Z,26.06
2023-05-10T12:49:34.856Z,26.12
2023-05-10T12:52:02.157Z,26.32
2023-05-10T12:54:29.271Z,26.42
2023-05-10T12:56:56.359Z,26.53
2023-05-10T12:59:23.909Z,26.68
2023-05-10T13:01:51.230Z,26.90
2023-05-10T13:04:18.372Z,26.97
2023-05-10T13:06:45.685Z,27.18
2023-05-10T13:09:12.773Z,27.34
2023-05-10T13:15:57.930Z,27.13
2023-05-10T13:18:25.649Z,27.11
2023-05-10T13:20:52.813Z,27.38
2023-05-10T13:23:19.922Z,27.47
2023-05-10T13:25:47.162Z,27.45
2023-05-10T13:28:14.219Z,27.48
2023-05-10T13:30:41.342Z,27.69
2023-05-10T13:33:08.498Z,27.83
2023-05-10T13:35:35.777Z,28.16
2023-05-10T13:42:27.027Z,28.43
2023-05-10T13:44:54.184Z,28.27
2023-05-10T13:47:22.679Z,28.67
2023-05-10T13:49:49.802Z,28.99
2023-05-10T13:52:16.958Z,29.58
2023-05-10T13:54:44.182Z,30.20
2023-05-10T13:57:13.683Z,30.94
2023-05-10T13:59:40.898Z,30.95
2023-05-10T14:02:08.206Z,31.43
2023-05-10T14:04:36.481Z,32.15
2023-05-10T14:07:03.694Z,33.94
2023-05-10T14:09:31.360Z,35.45
2023-05-10T14:11:58.621Z,36.34
2023-05-10T14:14:26.012Z,36.98
2023-05-10T14:16:53.253Z,37.44
2023-05-10T14:19:20.494Z,38.57
2023-05-10T14:21:47.745Z,39.49
2023-05-10T14:24:14.922Z,40.80
2023-05-10T14:26:41.991Z,42.40
2023-05-10T14:29:10.757Z,43.07
2023-05-10T14:31:39.723Z,44.34
2023-05-10T14:34:06.936Z,43.54
2023-05-10T14:36:34.480Z,43.64
2023-05-10T14:39:01.635Z,44.96
2023-05-10T14:41:28.904Z,46.08
2023-05-10T14:43:56.248Z,46.98
2023-05-10T14:46:23.494Z,48.25
2023-05-10T14:48:50.839Z,48.27
2023-05-10T14:51:19.680Z,49.22
2023-05-10T14:53:46.865Z,49.78
2023-05-10T14:56:14.017Z,48.37
2023-05-10T14:58:44.102Z,49.44
2023-05-10T15:01:13.683Z,49.46
2023-05-10T15:03:41.533Z,49.68
2023-05-10T15:06:09.706Z,48.94
2023-05-10T15:08:36.875Z,49.65
2023-05-10T15:11:04.255Z,49.87
2023-05-10T15:13:31.413Z,48.69
2023-05-10T15:15:58.524Z,47.88
2023-05-10T15:18:25.865Z,48.25
2023-05-10T15:20:52.985Z,47.59
2023-05-10T15:23:20.044Z,47.71
2023-05-10T15:25:47.334Z,48.07
2023-05-10T15:28:14.469Z,47.61
2023-05-10T15:30:41.599Z,43.27
2023-05-10T15:33:09.542Z,41.54
2023-05-10T15:35:39.155Z,42.12
2023-05-10T15:38:06.711Z,40.76
2023-05-10T15:40:33.850Z,39.45
2023-05-10T15:43:00.941Z,38.10
2023-05-10T15:45:28.196Z,36.67
2023-05-10T15:47:55.278Z,34.78
2023-05-10T15:50:22.589Z,34.21
2023-05-10T15:52:49.861Z,33.69
2023-05-10T15:55:17.490Z,32.56
2023-05-10T15:57:44.847Z,32.73
2023-05-10T16:00:12.864Z,34.78
2023-05-10T16:02:41.099Z,37.75
2023-05-10T16:05:09.656Z,39.86
2023-05-10T16:07:36.803Z,41.57
2023-05-10T16:10:06.399Z,42.44
2023-05-10T16:12:33.626Z,42.77
2023-05-10T16:15:00.872Z,42.64
2023-05-10T16:17:28.275Z,40.53
2023-05-10T16:19:56.101Z,37.12
2023-05-10T16:22:27.106Z,33.95
2023-05-10T16:25:06.921Z,30.96
2023-05-10T16:27:34.226Z,29.57
2023-05-10T16:30:01.710Z,28.38
2023-05-10T16:32:29.405Z,27.89
2023-05-10T16:34:57.394Z,27.70
2023-05-10T16:37:24.701Z,27.16
2023-05-10T16:39:52.442Z,26.42
2023-05-10T16:42:19.795Z,25.86
2023-05-10T16:44:47.680Z,25.68
2023-05-10T16:47:15.256Z,25.54
2023-05-10T16:49:42.585Z,25.30
2023-05-10T16:52:12.641Z,24.93
2023-05-10T16:54:40.367Z,24.65
2023-05-10T16:57:08.645Z,24.23
2023-05-10T16:59:35.832Z,23.98
2023-05-10T17:02:11.749Z,23.67
2023-05-10T17:04:39.885Z,23.50
2023-05-10T17:07:10.685Z,23.45
2023-05-10T17:09:52.991Z,23.18
2023-05-10T17:12:29.674Z,22.74
2023-05-10T17:15:02.049Z,22.53
2023-05-10T17:17:29.708Z,22.27
2023-05-10T17:19:59.927Z,22.21
2023-05-10T17:22:27.173Z,22.04
2023-05-10T17:24:54.372Z,21.77
2023-05-10T17:27:21.586Z,21.47
2023-05-10T17:29:48.759Z,21.19
2023-05-10T17:32:15.980Z,21.05
2023-05-10T17:34:43.158Z,21.01
2023-05-10T17:37:13.322Z,20.88
2023-05-10T17:39:40.514Z,20.68
2023-05-10T17:42:07.682Z,20.57
2023-05-10T17:44:35.134Z,20.54
2023-05-10T17:47:02.442Z,20.47
2023-05-10T17:49:29.598Z,20.43
2023-05-10T17:51:56.735Z,20.34
2023-05-10T17:54:23.976Z,20.18
2023-05-10T17:56:51.590Z,19.98
2023-05-10T17:59:18.753Z,19.85
2023-05-10T18:01:47.024Z,19.73
2023-05-10T18:04:15.623Z,19.62
2023-05-10T18:06:43.353Z,19.53
2023-05-10T18:09:11.094Z,19.43
2023-05-10T18:11:39.618Z,19.31
2023-05-10T18:14:07.145Z,19.21
2023-05-10T18:16:34.466Z,19.17
2023-05-10T18:19:02.126Z,19.10
2023-05-10T18:21:29.576Z,19.06
2023-05-10T18:23:57.157Z,19.02
2023-05-10T18:26:24.288Z,18.96
2023-05-10T18:28:51.717Z,18.91
2023-05-10T18:31:19.677Z,18.88
2023-05-10T18:33:46.911Z,18.86
2023-05-10T18:36:14.888Z,18.80
2023-05-10T18:38:42.123Z,18.72
2023-05-10T18:41:12.341Z,18.61
2023-05-10T18:43:39.522Z,18.53
2023-05-10T18:46:07.041Z,18.46
2023-05-10T18:48:34.396Z,18.40
2023-05-10T18:51:10.737Z,18.37
2023-05-10T18:53:38.285Z,18.32
2023-05-10T18:56:05.694Z,18.27
2023-05-10T18:58:33.694Z,18.19
2023-05-10T19:01:01.078Z,18.11
2023-05-10T19:03:29.677Z,18.05
2023-05-10T19:05:56.919Z,17.99
2023-05-10T19:08:24.188Z,17.94
2023-05-10T19:10:51.397Z,17.89
2023-05-10T19:13:18.833Z,17.82
2023-05-10T19:15:45.962Z,17.77
2023-05-10T19:18:13.115Z,17.71
2023-05-10T19:20:42.328Z,17.67
2023-05-10T19:23:10.483Z,17.62
2023-05-10T19:25:39.203Z,17.58
2023-05-10T19:28:06.479Z,17.56
2023-05-10T19:30:33.786Z,17.53
2023-05-10T19:33:05.001Z,17.48
2023-05-10T19:35:32.429Z,17.43
2023-05-10T19:37:59.571Z,17.39
2023-05-10T19:40:26.696Z,17.34
2023-05-10T19:42:56.762Z,17.29
2023-05-10T19:45:23.886Z,17.24
2023-05-10T19:47:50.987Z,17.21
2023-05-10T19:50:18.364Z,17.15
2023-05-10T19:52:45.994Z,17.10
2023-05-10T19:55:16.131Z,17.05
2023-05-10T19:57:43.662Z,16.99
2023-05-10T20:00:11.470Z,16.92
2023-05-10T20:02:38.700Z,16.86
2023-05-10T20:05:06.291Z,16.81
2023-05-10T20:07:33.392Z,16.78
2023-05-10T20:10:00.610Z,16.75
2023-05-10T20:12:28.250Z,16.70
2023-05-10T20:14:55.455Z,16.67
2023-05-10T20:17:22.751Z,16.62
2023-05-10T20:19:49.901Z,16.57
2023-05-10T20:22:17.016Z,16.52
2023-05-10T20:24:44.399Z,16.49
2023-05-10T20:27:11.534Z,16.45
2023-05-10T20:29:38.790Z,16.44
2023-05-10T20:32:05.957Z,16.41
2023-05-10T20:34:34.675Z,16.36
2023-05-10T20:37:02.015Z,16.32
2023-05-10T20:39:29.977Z,16.28
2023-05-10T20:41:57.103Z,16.26
2023-05-10T20:44:24.340Z,16.24
2023-05-10T20:46:51.518Z,16.18
2023-05-10T20:49:19.645Z,16.14
2023-05-10T20:51:46.801Z,16.11
2023-05-10T20:54:14.304Z,16.06
2023-05-10T20:56:41.428Z,16.03
2023-05-10T20:59:08.600Z,15.98
2023-05-10T21:01:35.875Z,15.97
2023-05-10T21:04:03.478Z,15.92
2023-05-10T21:06:31.885Z,15.89
2023-05-10T21:08:59.087Z,15.84
2023-05-10T21:11:26.229Z,15.78
2023-05-10T21:13:53.488Z,15.72
2023-05-10T21:16:20.790Z,15.68
2023-05-10T21:18:48.066Z,15.63
2023-05-10T21:21:15.290Z,15.59
2023-05-10T21:23:42.477Z,15.59
2023-05-10T21:26:09.573Z,15.55
2023-05-10T21:28:38.977Z,15.52
2023-05-10T21:31:07.451Z,15.51
2023-05-10T21:33:34.723Z,15.50
2023-05-10T21:36:01.913Z,15.50
2023-05-10T21:38:29.101Z,15.49
2023-05-10T21:40:56.264Z,15.48
2023-05-10T21:43:23.379Z,15.48
2023-05-10T21:45:50.554Z,15.45
2023-05-10T21:48:17.680Z,15.44
2023-05-10T21:50:45.141Z,15.43
2023-05-10T21:53:12.381Z,15.42
2023-05-10T21:55:39.575Z,15.40
2023-05-10T21:58:07.006Z,15.38
2023-05-10T22:00:34.442Z,15.39
2023-05-10T22:11:13.263Z,15.37
2023-05-10T22:13:40.420Z,15.35
2023-05-10T22:20:15.750Z,15.33
2023-05-10T22:23:08.156Z,15.31
2023-05-10T22:26:03.536Z,15.30
2023-05-10T22:28:55.178Z,15.29
2023-05-10T22:31:22.456Z,15.27
2023-05-10T22:33:49.669Z,15.25
2023-05-10T22:36:16.844Z,15.22
2023-05-10T22:38:44.064Z,15.19
2023-05-10T22:41:11.303Z,15.16
2023-05-10T22:43:38.951Z,15.14
2023-05-10T22:46:06.631Z,15.10
2023-05-10T22:48:34.761Z,15.05
2023-05-10T22:51:02.022Z,15.02
2023-05-10T22:53:29.232Z,14.98
2023-05-10T22:55:56.456Z,14.96
2023-05-10T22:58:23.786Z,14.93
2023-05-10T23:00:51.039Z,14.90
2023-05-10T23:03:18.509Z,14.86
2023-05-10T23:05:45.814Z,14.84
2023-05-10T23:08:13.470Z,14.82
2023-05-10T23:10:40.815Z,14.78
2023-05-10T23:13:08.101Z,14.75
2023-05-10T23:15:38.096Z,14.71
2023-05-10T23:18:05.904Z,14.67
2023-05-10T23:20:33.328Z,14.63
2023-05-10T23:23:00.537Z,14.58
2023-05-10T23:25:27.936Z,14.56
2023-05-10T23:27:55.176Z,14.51
2023-05-10T23:30:22.389Z,14.47
2023-05-10T23:32:49.725Z,14.47
2023-05-10T23:35:17.029Z,14.47
2023-05-10T23:37:44.262Z,14.47
2023-05-10T23:40:11.655Z,14.46
2023-05-10T23:42:39.072Z,14.43
2023-05-10T23:45:06.716Z,14.41
2023-05-10T23:47:33.974Z,14.39
2023-05-10T23:50:01.430Z,14.37
2023-05-10T23:52:28.781Z,14.33
2023-05-10T23:54:56.019Z,14.30
2023-05-10T23:57:23.174Z,14.25
2023-05-10T23:59:50.657Z,14.19
